EDT,Max TemperatureF,Mean TemperatureF,Min TemperatureF,Max Dew PointF,MeanDew PointF,Min DewpointF,Max Humidity, Mean Humidity, Min Humidity, Max Sea Level PressureIn, Mean Sea Level PressureIn, Min Sea Level PressureIn, Max VisibilityMiles, Mean VisibilityMiles, Min VisibilityMiles, Max Wind SpeedMPH, Mean Wind SpeedMPH, Max Gust SpeedMPH,PrecipitationIn, CloudCover, Events, WindDirDegrees
2011-10-1,46,44,41,45,41,36,100,90,81,29.98,29.86,29.72,10,8,2,17,8,25,0.00,8,,357
2011-10-2,44,40,37,43,37,34,93,91,76,29.96,29.91,29.88,10,8,0,13,10,18,0.00,8,,5
2011-10-3,55,50,46,48,46,43,100,87,63,30.08,29.98,29.91,10,8,0,12,7,,0.00,7,,6
2011-10-4,57,54,50,52,49,45,94,86,67,30.21,30.16,30.11,10,8,2,13,7,20,0.00,7,,323
2011-10-5,64,54,44,52,47,43,100,80,55,30.29,30.24,30.19,10,8,0,13,6,,0.00,1,,298
2011-10-6,64,52,39,43,36,30,81,61,30,30.40,30.36,30.33,10,10,1,8,4,,0.00,0,,141
2011-10-7,71,56,42,45,39,30,87,59,24,30.47,30.42,30.37,10,10,3,7,2,,0.00,0,,174
2011-10-8,75,62,48,54,48,43,87,66,41,30.51,30.46,30.42,10,10,10,9,6,,0.00,0,,189
2011-10-9,75,63,51,54,49,45,88,64,34,30.49,30.44,30.38,10,10,3,8,5,,0.00,0,,195
2011-10-10,71,60,50,54,49,46,88,68,43,30.38,30.32,30.24,10,10,5,6,1,,0.00,0,,169
2011-10-11,73,62,50,55,49,45,94,66,38,30.24,30.17,30.11,10,9,1,7,2,,0.00,0,,156
2011-10-12,60,56,53,54,52,52,94,87,72,30.10,29.99,29.84,10,8,3,12,7,16,0.00,7,,139
2011-10-13,66,60,53,57,54,52,100,87,73,29.82,29.71,29.57,10,10,9,12,8,16,0.00,8,,157
2011-10-14,60,56,51,57,52,45,94,88,72,29.44,29.40,29.37,10,9,3,20,11,28,0.00,8,,212
2011-10-15,44,42,41,41,39,37,87,86,81,29.60,29.51,29.47,10,8,4,23,15,37,0.00,8,,230
2011-10-16,50,47,44,46,40,34,93,77,58,29.85,29.77,29.64,10,9,4,18,12,29,0.00,8,,228
2011-10-17,55,48,42,39,33,23,87,61,29,29.73,29.70,29.67,10,10,10,26,13,34,0.00,3,,236
2011-10-18,53,48,42,41,34,28,76,60,44,29.89,29.81,29.76,10,10,10,9,5,,0.00,4,,226
2011-10-19,64,54,44,52,45,39,82,76,59,29.78,29.59,29.35,10,10,7,17,10,28,0.00,5,,85
2011-10-20,55,47,39,54,41,36,94,84,71,29.44,29.28,29.19,10,9,3,20,12,29,0.00,8,Thunderstorm,197
2011-10-21,44,42,41,39,38,37,93,87,76,30.00,29.81,29.56,10,8,2,17,12,25,0.00,8,,242
2011-10-22,48,44,39,39,37,34,87,77,58,30.08,30.06,30.03,10,10,10,12,4,,0.00,7,,269
2011-10-23,55,44,32,39,34,30,100,72,44,30.10,30.06,30.02,10,8,0,10,5,,0.00,0,,198
2011-10-24,51,46,42,46,40,36,93,77,66,30.02,29.96,29.91,10,10,6,15,8,21,0.00,5,,210
2011-10-25,53,45,37,41,36,34,93,72,50,30.16,30.10,30.00,10,10,10,14,6,21,0.00,3,,257
2011-10-26,55,50,44,50,45,36,94,85,62,29.94,29.82,29.75,10,7,2,10,7,,0.00,8,,215
2011-10-27,44,38,32,43,34,30,100,92,87,29.99,29.80,29.74,10,6,0,13,9,16,0.00,8,,12
2011-10-28,39,32,24,34,28,23,100,89,70,30.22,30.15,30.07,10,5,0,6,1,,0.00,5,,174
2011-10-29,33,32,32,32,29,27,93,86,75,30.13,30.07,30.03,10,6,0,7,3,,0.00,6,,90
2011-10-30,41,32,24,36,27,21,100,88,70,30.25,30.18,30.08,10,4,0,12,4,,0.00,5,,196
2011-10-31,46,38,30,37,31,28,93,78,53,30.23,30.17,30.11,10,10,8,13,7,18,0.00,4,,171